X  Luk Metar data     LIPX Verona-Villafranca Valerio Catullo Airport
Temperatur
18°C Temperatur
13°C Duggpunkt
73% Fugtighed



Vind
3 KM/T
2 MPT
1 M/S
2 KNOB



Stille
Nord
Nuværende forhold

Delvis skyet Delvis skyet
Tryk 1015.92 (hPa) - 30 (inHg)
Sigt 6.2 (mil) - 10 (km)
Lufthavn
Lufthavnskode LIPX

Lokation: Verona-Villafranca Valerio Catullo Airport
Afstand: 50 (km)

Metar:
LIPX 010520Z VRB02KT 9999 FEW080 18/13 Q1016

Tid: 01-06-2023 05:20 CEST